BDN weather

Bend Municipal Airport
Bend, Oregon, United States

Public forecast

Using degrees Fahrenheit for public forecast. Weather courtesy of forecast.io.

METAR (pilot weather report)

Retrieved 2019/06/20 00:35 UTC (0 seconds ago):

KBDN 200035Z AUTO 33014G24KT CLR 21/M04 A3008 RMK AO2

TAF (pilot weather forecast)

Forecast is more than 12 hours old.

Retrieved 2019/06/19 00:22 UTC (24 hours ago):

TAF KBDN 192320Z 2000/2024 32016KT P6SM SKC FM200500 31008KT P6SM FEW060 FM201600 32014G22KT P6SM BKN060